Time;durP1;ratioP1;P1;durP2;ratioP2;P2;SDS_P1;SDS_P2;PMS_P1;PMS_P2;Temp;Humidity;BMP_temperature;BMP_pressure;BME280_temperature;BME280_humidity;BME280_pressure;Samples;Min_cycle;Max_cycle;Signal;HPM_P1;HPM_P2
2023/03/02 00:01:31;;;;;;;56.87;23.93;;;;;;;-144.73;98.48;54387.19;5096855;28;20074;-72
2023/03/02 00:03:59;;;;;;;43.53;21.37;;;;;;;-144.73;97.64;54378.97;5076417;28;20032;-72
2023/03/02 00:06:29;;;;;;;63.00;24.17;;;;;;;-144.73;98.23;54342.03;5075270;28;20368;-72
2023/03/02 00:08:59;;;;;;;50.53;23.23;;;;;;;-144.73;98.54;54350.22;5091874;28;20035;-72
2023/03/02 00:11:26;;;;;;;73.70;26.63;;;;;;;-144.73;98.34;54370.75;5081945;28;20032;-72
2023/03/02 00:13:51;;;;;;;63.87;26.00;;;;;;;-144.73;98.15;54383.06;5080563;28;20019;-72
2023/03/02 00:16:17;;;;;;;55.90;22.80;;;;;;;-144.73;97.99;54383.06;5082941;28;20035;-71
2023/03/02 00:18:42;;;;;;;64.60;23.77;;;;;;;-144.73;98.71;54391.28;5092612;28;20100;-71
2023/03/02 00:21:09;;;;;;;61.83;23.17;;;;;;;-144.73;98.44;54370.75;5100818;28;20035;-71
2023/03/02 00:23:36;;;;;;;52.97;23.30;;;;;;;-144.73;97.71;54362.53;5089584;28;20123;-71
2023/03/02 00:26:02;;;;;;;78.03;27.30;;;;;;;-144.73;97.88;54387.19;5099605;28;20035;-71
2023/03/02 00:28:28;;;;;;;47.57;23.20;;;;;;;-144.73;97.89;54362.53;5077274;28;20126;-71
2023/03/02 00:30:54;;;;;;;65.50;21.77;;;;;;;-144.73;97.56;54364.59;5093270;28;20035;-71
2023/03/02 00:33:19;;;;;;;69.70;22.40;;;;;;;-144.73;97.37;54350.22;5082851;28;20493;-72
2023/03/02 00:35:46;;;;;;;54.13;22.47;;;;;;;-144.73;97.95;54370.75;5073335;28;20054;-72
2023/03/02 00:38:12;;;;;;;58.63;22.83;;;;;;;-144.73;97.79;54378.97;5080573;28;20032;-72
2023/03/02 00:40:43;;;;;;;48.27;21.97;;;;;;;-144.73;97.54;54383.06;5079735;28;20028;-72
2023/03/02 00:43:08;;;;;;;49.00;21.98;;;;;;;-144.73;97.34;54407.69;5082450;28;20028;-72
2023/03/02 00:45:34;;;;;;;59.47;22.90;;;;;;;-144.73;96.77;54337.91;5080867;28;20035;-72
2023/03/02 00:47:59;;;;;;;46.53;21.30;;;;;;;-144.73;96.99;54362.53;5091926;28;20047;-72
2023/03/02 00:50:24;;;;;;;53.63;23.33;;;;;;;-144.73;96.43;54374.84;5081308;28;20020;-72
2023/03/02 00:52:50;;;;;;;60.90;22.67;;;;;;;-144.73;96.32;54411.81;5097989;28;20379;-72
2023/03/02 00:55:15;;;;;;;40.20;19.10;;;;;;;-144.73;96.50;54383.06;5074711;28;20069;-72
2023/03/02 00:57:40;;;;;;;69.23;24.77;;;;;;;-144.73;96.45;54393.34;5075478;28;20051;-72
2023/03/02 01:00:06;;;;;;;103.57;24.50;;;;;;;-144.73;95.71;54362.53;5085283;28;20038;-72
2023/03/02 01:02:32;;;;;;;44.67;19.43;;;;;;;-144.73;95.81;54387.19;5092229;28;20031;-72
2023/03/02 01:04:57;;;;;;;43.67;21.37;;;;;;;-144.73;95.93;54411.81;5103396;28;20041;-72
2023/03/02 01:07:27;;;;;;;54.30;20.47;;;;;;;-144.73;95.44;54383.06;5084415;28;20036;-72
2023/03/02 01:09:52;;;;;;;52.03;20.93;;;;;;;-144.73;95.80;54362.53;5081234;28;20036;-72
2023/03/02 01:12:18;;;;;;;48.73;18.30;;;;;;;-144.73;95.50;54368.69;5083276;28;20047;-73
2023/03/02 01:14:46;;;;;;;82.90;25.10;;;;;;;-144.73;95.79;54407.69;5081490;28;20020;-73
2023/03/02 01:17:12;;;;;;;47.03;22.03;;;;;;;-144.73;95.92;54391.28;5100614;28;20038;-71
2023/03/02 01:19:39;;;;;;;34.77;17.60;;;;;;;-144.73;95.87;54411.81;5085120;28;20030;-71
2023/03/02 01:22:05;;;;;;;72.93;20.60;;;;;;;-144.73;95.87;54370.75;5075241;28;20057;-72
2023/03/02 01:24:32;;;;;;;54.43;21.27;;;;;;;-144.73;96.70;54391.28;5072605;28;20165;-72
2023/03/02 01:26:58;;;;;;;59.20;21.50;;;;;;;-144.73;96.81;54415.91;5072849;28;20449;-73
2023/03/02 01:29:23;;;;;;;73.70;21.80;;;;;;;-144.73;96.89;54407.69;5073177;28;20109;-71
2023/03/02 01:31:49;;;;;;;68.77;19.40;;;;;;;-144.73;97.64;54374.84;5072548;28;20165;-71
2023/03/02 01:34:14;;;;;;;45.20;17.47;;;;;;;-144.73;98.33;54362.53;5082896;28;20372;-71
2023/03/02 01:36:40;;;;;;;76.90;22.83;;;;;;;-144.73;98.29;54372.81;5084950;28;20035;-71
2023/03/02 01:39:05;;;;;;;33.80;17.77;;;;;;;-144.73;98.59;54383.06;5076178;28;20039;-71
2023/03/02 01:41:31;;;;;;;45.40;18.63;;;;;;;-144.73;98.21;54378.97;5088383;28;20040;-71
2023/03/02 01:43:56;;;;;;;65.47;19.03;;;;;;;-144.73;98.12;54366.66;5110123;28;20035;-72
2023/03/02 01:46:26;;;;;;;50.90;19.17;;;;;;;-144.73;98.04;54362.53;5081373;28;20035;-72
2023/03/02 01:48:51;;;;;;;35.60;17.13;;;;;;;-144.73;97.62;54424.13;5073452;28;20059;-72
2023/03/02 01:51:20;;;;;;;40.97;18.83;;;;;;;-144.73;97.82;54360.50;5082621;28;20051;-72
2023/03/02 01:53:49;;;;;;;51.23;19.90;;;;;;;-144.73;97.91;54356.38;5086705;28;20058;-72
2023/03/02 01:56:18;;;;;;;41.57;17.20;;;;;;;-144.73;97.52;54407.69;5091486;28;20081;-72
2023/03/02 01:58:46;;;;;;;45.17;18.73;;;;;;;-144.73;97.62;54374.84;5104857;28;20024;-72
2023/03/02 02:01:14;;;;;;;44.77;21.13;;;;;;;-144.73;97.65;54378.97;5080073;28;20118;-73
2023/03/02 02:03:46;;;;;;;40.57;18.20;;;;;;;-144.73;97.66;54387.19;5073147;28;20023;-74
2023/03/02 02:06:20;;;;;;;39.60;16.43;;;;;;;-144.73;97.39;54358.44;5072766;28;20032;-73
2023/03/02 02:08:47;;;;;;;37.43;16.97;;;;;;;-144.73;97.17;54428.22;5073434;28;20028;-73
2023/03/02 02:11:13;;;;;;;44.87;19.40;;;;;;;-144.73;96.50;54411.81;5072798;28;20062;-75
2023/03/02 02:13:38;;;;;;;39.20;18.57;;;;;;;-144.73;96.89;54362.53;5074099;28;20036;-72
2023/03/02 02:16:05;;;;;;;35.57;16.43;;;;;;;-144.73;96.44;54387.19;5094640;28;20087;-73
2023/03/02 02:18:30;;;;;;;49.10;20.73;;;;;;;-144.73;96.20;54417.97;5076777;28;20027;-71
2023/03/02 02:20:56;;;;;;;57.37;21.23;;;;;;;-144.73;96.76;54385.13;5076246;28;20082;-72
2023/03/02 02:23:41;;;;;;;63.20;19.60;;;;;;;-144.73;96.74;54374.84;5076766;28;20039;-73
2023/03/02 02:26:17;;;;;;;64.50;18.07;;;;;;;-144.73;96.46;54391.28;5094531;28;20101;-72
2023/03/02 02:29:11;;;;;;;49.90;19.63;;;;;;;-144.73;96.17;54370.75;5076695;28;20088;-73
2023/03/02 02:31:45;;;;;;;37.23;19.07;;;;;;;-144.73;96.52;54346.13;5092902;28;20039;-73
2023/03/02 02:34:21;;;;;;;59.53;20.40;;;;;;;-144.73;96.22;54362.53;5077446;28;20077;-72
2023/03/02 02:36:49;;;;;;;82.40;21.50;;;;;;;-144.73;96.49;54374.84;5076517;28;20119;-72
2023/03/02 02:39:22;;;;;;;52.27;18.90;;;;;;;-144.73;97.23;54395.38;5076804;28;20024;-72
2023/03/02 02:41:49;;;;;;;42.50;18.73;;;;;;;-144.73;97.46;54366.66;5076061;28;20058;-72
2023/03/02 02:44:17;;;;;;;67.13;22.23;;;;;;;-144.73;97.46;54411.81;5076660;28;20030;-75
2023/03/02 02:46:43;;;;;;;103.03;23.03;;;;;;;-144.73;97.77;54366.66;5075992;28;20040;-72
2023/03/02 02:49:36;;;;;;;90.53;24.67;;;;;;;-144.73;98.34;54420.00;5076647;28;20028;-72
2023/03/02 02:52:04;;;;;;;46.20;19.13;;;;;;;-144.73;99.27;54350.22;5075851;28;20028;-72
2023/03/02 02:54:32;;;;;;;82.63;19.03;;;;;;;-144.73;98.58;54387.19;5076741;28;20028;-73
2023/03/02 02:57:00;;;;;;;72.67;20.20;;;;;;;-144.73;98.59;54346.13;5076149;28;20039;-73
2023/03/02 02:59:36;;;;;;;83.30;22.73;;;;;;;-144.73;98.81;54354.34;5076147;28;20111;-73
2023/03/02 03:02:02;;;;;;;121.10;24.77;;;;;;;-144.73;99.59;54370.75;5093858;28;20036;-75
2023/03/02 03:04:30;;;;;;;90.90;23.40;;;;;;;-144.73;99.98;54383.06;5094368;28;20024;-73
2023/03/02 03:06:56;;;;;;;161.53;27.30;;;;;;;-144.73;99.90;54376.91;5076136;28;20511;-72
2023/03/02 03:09:22;;;;;;;111.17;29.33;;;;;;;-144.73;99.96;54374.84;5076071;28;20489;-73
2023/03/02 03:12:20;;;;;;;73.83;23.60;;;;;;;-144.73;99.82;54378.97;5075792;28;20051;-73
2023/03/02 03:14:46;;;;;;;94.87;25.23;;;;;;;-144.73;99.94;54362.53;5075257;28;20028;-75
2023/03/02 03:17:12;;;;;;;77.93;24.00;;;;;;;-144.73;100.00;54370.75;5075451;28;20036;-72
2023/03/02 03:19:40;;;;;;;50.30;20.43;;;;;;;-144.73;100.00;54415.91;5094044;28;20074;-75
2023/03/02 03:22:06;;;;;;;75.73;24.57;;;;;;;-144.73;100.00;54424.13;5075332;28;20370;-73
2023/03/02 03:24:33;;;;;;;45.17;18.17;;;;;;;-144.73;100.00;54424.13;5075926;28;20115;-73
2023/03/02 03:27:00;;;;;;;55.23;20.77;;;;;;;-144.73;99.97;54407.69;5074695;28;20182;-75
2023/03/02 03:29:27;;;;;;;75.17;22.73;;;;;;;-144.73;99.79;54358.44;5075506;28;20047;-73
2023/03/02 03:31:55;;;;;;;40.20;17.50;;;;;;;-144.73;99.67;54378.97;5074995;28;20566;-73
2023/03/02 03:34:21;;;;;;;53.53;20.63;;;;;;;-144.73;98.82;54391.28;5075655;28;20023;-73
2023/03/02 03:36:46;;;;;;;61.60;24.33;;;;;;;-144.73;98.25;54391.28;5075045;28;20081;-73
2023/03/02 03:39:12;;;;;;;60.13;20.43;;;;;;;-144.73;98.29;54374.84;5075615;28;20055;-73
2023/03/02 03:41:38;;;;;;;53.13;21.60;;;;;;;-144.73;97.65;54370.75;5075239;28;20024;-73
2023/03/02 03:44:04;;;;;;;43.53;20.87;;;;;;;-144.73;97.83;54358.44;5093500;28;20357;-73
2023/03/02 03:46:30;;;;;;;53.33;20.93;;;;;;;-144.73;97.89;54420.00;5093048;28;20032;-75
2023/03/02 03:48:56;;;;;;;51.10;18.83;;;;;;;-144.73;97.60;54407.69;5075491;28;20063;-75
2023/03/02 03:51:21;;;;;;;41.57;18.53;;;;;;;-144.73;97.66;54370.75;5074996;28;20028;-73
2023/03/02 03:53:58;;;;;;;33.67;16.83;;;;;;;-144.73;96.81;54407.69;5075310;28;20028;-73
2023/03/02 03:56:25;;;;;;;63.33;19.43;;;;;;;-144.73;96.48;54383.06;5074763;28;20101;-73
2023/03/02 03:59:00;;;;;;;74.97;20.90;;;;;;;-144.73;96.21;54376.91;5093207;28;20032;-74
2023/03/02 04:03:54;;;;;;;92.33;21.07;;;;;;;-144.73;96.73;54370.75;5055239;28;20075;-69
2023/03/02 04:06:20;;;;;;;66.53;17.60;;;;;;;-144.73;97.16;54378.97;5054607;28;20033;-69
2023/03/02 04:08:45;;;;;;;107.93;23.27;;;;;;;-144.73;97.41;54376.91;5055065;28;20017;-69
2023/03/02 04:11:10;;;;;;;45.80;18.40;;;;;;;-144.73;97.62;54391.28;5034069;28;20061;-69
2023/03/02 04:13:36;;;;;;;66.13;20.87;;;;;;;-144.73;97.83;54378.97;5034268;28;20025;-69
2023/03/02 04:16:01;;;;;;;117.37;23.40;;;;;;;-144.73;97.55;54389.22;5049583;28;20117;-68
2023/03/02 04:18:27;;;;;;;95.23;21.23;;;;;;;-144.73;97.77;54356.38;5030802;28;20010;-68
2023/03/02 04:20:52;;;;;;;47.53;19.47;;;;;;;-144.73;98.17;54374.84;4996889;28;20184;-69
2023/03/02 04:23:17;;;;;;;52.80;19.50;;;;;;;-144.73;98.17;54391.28;4997494;28;20030;-69
2023/03/02 04:25:43;;;;;;;75.37;22.67;;;;;;;-144.73;97.73;54370.75;4996760;28;20041;-69
2023/03/02 04:28:08;;;;;;;77.57;20.87;;;;;;;-144.73;97.81;54372.81;4996818;28;20538;-69
2023/03/02 04:30:33;;;;;;;77.47;22.63;;;;;;;-144.73;97.79;54407.69;4996692;28;20126;-69
2023/03/02 04:32:59;;;;;;;100.23;22.67;;;;;;;-144.73;97.50;54350.22;4997366;28;20450;-68
2023/03/02 04:35:24;;;;;;;98.77;21.73;;;;;;;-144.73;97.54;54378.97;4996802;28;20038;-69
2023/03/02 04:37:50;;;;;;;89.80;21.87;;;;;;;-144.73;97.44;54407.69;4997219;28;20041;-69
2023/03/02 04:40:16;;;;;;;77.57;23.63;;;;;;;-144.73;97.66;54374.84;5007036;28;20017;-69
2023/03/02 04:42:43;;;;;;;59.20;20.30;;;;;;;-144.73;97.14;54374.84;5016570;28;20067;-69
2023/03/02 04:45:09;;;;;;;77.00;23.37;;;;;;;-144.73;97.11;54428.22;5016783;28;20040;-69
2023/03/02 04:47:34;;;;;;;75.80;21.27;;;;;;;-144.73;96.99;54387.19;5016405;28;20037;-69
2023/03/02 04:50:00;;;;;;;74.00;21.20;;;;;;;-144.73;96.90;54362.53;5000503;28;20021;-69
2023/03/02 04:52:25;;;;;;;74.57;24.30;;;;;;;-144.73;96.94;54387.19;4997346;28;20034;-69
2023/03/02 04:54:51;;;;;;;73.30;23.90;;;;;;;-144.73;97.13;54399.50;4997097;28;20032;-69
2023/03/02 04:57:16;;;;;;;47.63;17.93;;;;;;;-144.73;97.26;54372.81;4998499;28;20038;-69
2023/03/02 04:59:42;;;;;;;69.77;22.83;;;;;;;-144.73;96.93;54383.06;5016409;28;20041;-69
2023/03/02 05:02:07;;;;;;;145.93;25.10;;;;;;;-144.73;96.88;54393.34;5015844;28;20034;-69
2023/03/02 05:04:33;;;;;;;82.00;20.80;;;;;;;-144.73;95.92;54362.53;5016329;28;20032;-69
2023/03/02 05:06:58;;;;;;;100.30;23.50;;;;;;;-144.73;96.37;54374.84;5015579;28;20444;-69
2023/03/02 05:09:29;;;;;;;69.63;22.40;;;;;;;-144.73;96.75;54335.88;5015983;28;20116;-69
2023/03/02 05:11:58;;;;;;;77.85;24.17;;;;;;;-144.73;97.18;54350.22;5013561;28;20037;-69
2023/03/02 05:14:24;;;;;;;99.63;24.17;;;;;;;-144.73;97.29;54395.38;5016272;28;20021;-69
2023/03/02 05:16:50;;;;;;;82.67;22.73;;;;;;;-144.73;97.10;54395.38;5033742;28;20057;-69
2023/03/02 05:19:16;;;;;;;85.00;23.40;;;;;;;-144.73;97.09;54395.38;5034045;28;20014;-69
2023/03/02 05:21:42;;;;;;;77.47;23.07;;;;;;;-144.73;97.31;54436.44;5033480;28;20493;-69
2023/03/02 05:24:09;;;;;;;56.57;21.00;;;;;;;-144.73;96.99;54366.66;5033401;28;20029;-69
2023/03/02 05:26:34;;;;;;;55.13;22.03;;;;;;;-144.73;97.40;54387.19;5049561;28;20172;-69
2023/03/02 05:29:00;;;;;;;94.27;27.30;;;;;;;-144.73;96.99;54366.66;5033840;28;20056;-68
2023/03/02 05:31:34;;;;;;;87.83;25.53;;;;;;;-144.73;97.10;54383.06;5033323;28;20041;-68
2023/03/02 05:34:00;;;;;;;54.90;21.60;;;;;;;-144.73;97.11;54383.06;5034719;28;20029;-69
2023/03/02 05:36:26;;;;;;;73.53;23.20;;;;;;;-144.73;96.71;54358.44;5033613;28;20032;-69
2023/03/02 05:38:51;;;;;;;64.40;22.37;;;;;;;-144.73;97.09;54378.97;5019362;28;20109;-69
2023/03/02 05:41:17;;;;;;;93.10;25.60;;;;;;;-144.73;97.11;54407.69;4998630;28;20034;-69
2023/03/02 05:43:42;;;;;;;69.83;24.50;;;;;;;-144.73;97.21;54362.53;5033960;28;20018;-68
2023/03/02 05:46:08;;;;;;;46.83;21.47;;;;;;;-144.73;97.11;54407.69;5014925;28;20030;-69
2023/03/02 05:48:33;;;;;;;101.93;26.10;;;;;;;-144.73;97.53;54393.34;4998419;28;20101;-68
2023/03/02 05:50:59;;;;;;;76.87;25.53;;;;;;;-144.73;97.29;54415.91;5000938;28;20038;-68
2023/03/02 05:53:24;;;;;;;81.90;24.57;;;;;;;-144.73;97.19;54395.38;5017777;28;20025;-69
2023/03/02 05:55:51;;;;;;;97.80;24.33;;;;;;;-144.73;96.83;54391.28;5010090;28;20036;-68
2023/03/02 05:58:18;;;;;;;72.73;21.50;;;;;;;-144.73;97.24;54387.19;5019610;28;20020;-69
2023/03/02 06:00:44;;;;;;;91.93;25.13;;;;;;;-144.73;97.21;54399.50;5000857;28;20030;-69
2023/03/02 06:03:10;;;;;;;68.37;25.70;;;;;;;-144.73;97.03;54374.84;5032120;28;20026;-69
2023/03/02 06:05:35;;;;;;;88.10;26.07;;;;;;;-144.73;96.63;54391.28;5023488;28;20049;-69
2023/03/02 06:08:01;;;;;;;131.73;25.90;;;;;;;-144.73;96.49;54362.53;5000504;28;20113;-68
2023/03/02 06:10:26;;;;;;;87.67;23.77;;;;;;;-144.73;96.58;54407.69;5011405;28;20029;-69
2023/03/02 06:12:52;;;;;;;81.87;23.70;;;;;;;-144.73;96.75;54362.53;5020134;28;20013;-69
2023/03/02 06:15:18;;;;;;;79.97;23.90;;;;;;;-144.73;96.80;54395.38;5009493;28;20021;-69
2023/03/02 06:17:43;;;;;;;57.37;22.17;;;;;;;-144.73;96.91;54366.66;5000202;28;20389;-69
2023/03/02 06:20:09;;;;;;;80.83;23.83;;;;;;;-144.73;96.86;54387.19;5016582;28;20029;-69
2023/03/02 06:22:45;;;;;;;85.87;24.63;;;;;;;-144.73;96.92;54424.13;5005613;28;20047;-68
2023/03/02 06:25:15;;;;;;;158.90;29.90;;;;;;;-144.73;96.53;54374.84;5036076;28;20029;-69
2023/03/02 06:27:41;;;;;;;158.77;28.40;;;;;;;-144.73;96.51;54378.97;5036384;28;20099;-69
2023/03/02 06:30:08;;;;;;;155.30;28.37;;;;;;;-144.73;96.90;54391.28;5019660;28;20017;-69
2023/03/02 06:32:34;;;;;;;96.20;27.33;;;;;;;-144.73;97.29;54407.69;5019311;28;20042;-69
2023/03/02 06:35:01;;;;;;;78.13;25.50;;;;;;;-144.73;97.39;54333.81;5011779;28;20560;-69
2023/03/02 06:37:27;;;;;;;104.27;26.17;;;;;;;-144.73;96.90;54389.22;5016178;28;20033;-69
2023/03/02 06:39:54;;;;;;;97.83;27.07;;;;;;;-144.73;97.36;54426.16;5004946;28;20067;-70
2023/03/02 06:42:19;;;;;;;90.17;25.93;;;;;;;-144.73;96.94;54378.97;5023185;28;20117;-71
2023/03/02 06:44:45;;;;;;;60.30;21.80;;;;;;;-144.73;97.04;54407.69;5032274;28;20088;-70
2023/03/02 06:47:10;;;;;;;137.27;27.47;;;;;;;-144.73;97.51;54422.06;5018163;28;20112;-70
2023/03/02 06:49:35;;;;;;;108.57;26.60;;;;;;;-144.73;98.12;54385.13;5019871;28;20026;-70
2023/03/02 06:52:01;;;;;;;120.30;26.90;;;;;;;-144.73;97.72;54407.69;5012289;28;20126;-70
2023/03/02 06:54:26;;;;;;;116.93;28.93;;;;;;;-144.73;97.44;54370.75;5015439;28;20029;-70
2023/03/02 06:56:52;;;;;;;72.07;26.37;;;;;;;-144.73;97.61;54376.91;5009009;28;20037;-70
2023/03/02 06:59:17;;;;;;;85.90;26.70;;;;;;;-144.73;97.67;54420.00;5006098;28;20095;-70
2023/03/02 07:01:43;;;;;;;76.73;25.80;;;;;;;-144.73;96.92;54374.84;5020368;28;20026;-70
2023/03/02 07:04:08;;;;;;;52.10;21.93;;;;;;;-144.73;96.96;54387.19;5008572;28;20041;-71
2023/03/02 07:06:33;;;;;;;112.47;28.87;;;;;;;-144.73;96.91;54407.69;5020457;28;20374;-70
2023/03/02 07:09:00;;;;;;;81.33;26.13;;;;;;;-144.73;97.17;54370.75;4999717;28;20085;-71
2023/03/02 07:11:25;;;;;;;62.87;26.10;;;;;;;-144.73;96.95;54407.69;5013831;28;20038;-70
2023/03/02 07:13:51;;;;;;;102.40;28.37;;;;;;;-144.73;96.97;54383.06;5027016;28;20026;-70
2023/03/02 07:16:16;;;;;;;105.93;29.27;;;;;;;-144.73;96.71;54422.06;5024598;28;20033;-70
2023/03/02 07:18:44;;;;;;;111.83;29.13;;;;;;;-144.73;96.92;54409.75;5018734;28;20029;-71
2023/03/02 07:21:13;;;;;;;105.53;27.87;;;;;;;-144.73;96.98;54358.44;5026782;28;20038;-71
2023/03/02 07:23:38;;;;;;;100.43;28.33;;;;;;;-144.73;97.09;54415.91;5020966;28;20029;-71
2023/03/02 07:26:07;;;;;;;67.73;25.17;;;;;;;-144.73;96.75;54415.91;5005491;28;20037;-71
2023/03/02 07:28:33;;;;;;;63.23;25.27;;;;;;;-144.73;96.56;54374.84;5006655;28;20125;-71
2023/03/02 07:30:58;;;;;;;76.73;25.57;;;;;;;-144.73;96.42;54395.38;5023074;28;20102;-71
2023/03/02 07:33:24;;;;;;;80.87;24.93;;;;;;;-144.73;96.46;54391.28;5015815;28;20032;-71
2023/03/02 07:35:49;;;;;;;78.83;23.17;;;;;;;-144.73;96.18;54432.31;5024136;28;20298;-71
2023/03/02 07:38:14;;;;;;;67.80;23.30;;;;;;;-144.73;96.12;54428.22;5024091;28;20021;-71
2023/03/02 07:40:40;;;;;;;61.97;24.37;;;;;;;-144.73;96.17;54407.69;5027344;28;20064;-69
2023/03/02 07:43:06;;;;;;;100.57;30.50;;;;;;;-144.73;96.84;54407.69;5000040;28;20140;-70
2023/03/02 07:45:31;;;;;;;97.03;25.23;;;;;;;-144.73;96.83;54407.69;5014885;28;20063;-70
2023/03/02 07:47:57;;;;;;;73.97;25.50;;;;;;;-144.73;96.92;54362.53;5024646;28;20041;-70
2023/03/02 07:50:22;;;;;;;129.57;23.00;;;;;;;-144.73;96.50;54407.69;5023995;28;20080;-70
2023/03/02 07:52:47;;;;;;;87.60;23.60;;;;;;;-144.73;96.29;54420.00;5008359;28;20430;-70
2023/03/02 07:55:13;;;;;;;139.57;24.57;;;;;;;-144.73;96.00;54362.53;5000872;28;20029;-69
2023/03/02 07:57:38;;;;;;;74.10;21.37;;;;;;;-144.73;96.10;54370.75;5012752;28;20022;-70
2023/03/02 08:00:04;;;;;;;86.03;25.30;;;;;;;-144.73;95.68;54378.97;4999515;28;20371;-70
2023/03/02 08:02:32;;;;;;;101.90;25.57;;;;;;;-144.73;95.19;54415.91;4994716;28;20041;-70
2023/03/02 08:04:57;;;;;;;67.73;22.53;;;;;;;-144.73;95.44;54407.69;5014161;28;20421;-70
2023/03/02 08:07:23;;;;;;;50.27;19.33;;;;;;;-144.73;95.46;54411.81;5016067;28;20041;-71
2023/03/02 08:09:49;;;;;;;46.47;20.47;;;;;;;-144.73;95.42;54411.81;4995573;28;20041;-69
2023/03/02 08:12:14;;;;;;;55.10;23.27;;;;;;;-144.73;95.04;54424.13;5003233;28;20038;-70
2023/03/02 08:14:40;;;;;;;81.63;23.90;;;;;;;-144.73;94.53;54411.81;5007729;28;20063;-70
2023/03/02 08:17:05;;;;;;;76.13;23.23;;;;;;;-144.73;94.89;54420.00;5011974;28;20088;-70
2023/03/02 08:19:32;;;;;;;125.30;22.70;;;;;;;-144.73;95.39;54387.19;5017072;28;20091;-70
2023/03/02 08:21:57;;;;;;;68.50;23.40;;;;;;;-144.73;95.62;54399.50;5005830;28;20057;-70
2023/03/02 08:24:23;;;;;;;85.67;23.43;;;;;;;-144.73;95.26;54407.69;5001012;28;20075;-69
2023/03/02 08:26:48;;;;;;;64.77;22.23;;;;;;;-144.73;95.54;54366.66;5002748;28;20042;-70
2023/03/02 08:29:13;;;;;;;56.67;22.10;;;;;;;-144.73;95.80;54391.28;5022584;28;20128;-69
2023/03/02 08:31:39;;;;;;;50.93;22.47;;;;;;;-144.73;95.62;54432.31;5002085;28;20037;-69
2023/03/02 08:34:04;;;;;;;51.40;20.43;;;;;;;-144.73;95.06;54378.97;5009104;28;20026;-69
2023/03/02 08:36:30;;;;;;;76.40;23.27;;;;;;;-144.73;94.61;54391.28;4994759;28;20037;-69
2023/03/02 08:38:55;;;;;;;55.13;19.77;;;;;;;-144.73;94.35;54422.06;4993558;28;20079;-71
2023/03/02 08:41:22;;;;;;;62.37;21.10;;;;;;;-144.73;93.82;54378.97;5001306;28;20083;-70
2023/03/02 08:43:48;;;;;;;46.50;21.70;;;;;;;-144.73;93.59;54383.06;4999576;28;20021;-70
2023/03/02 08:46:17;;;;;;;41.30;18.40;;;;;;;-144.73;94.19;54415.91;4996765;28;20041;-67
2023/03/02 08:48:43;;;;;;;41.90;19.90;;;;;;;-144.73;94.02;54395.38;5021602;28;20135;-68
2023/03/02 08:51:16;;;;;;;53.77;20.80;;;;;;;-144.73;93.42;54383.06;4997779;28;20041;-68
2023/03/02 08:53:45;;;;;;;41.67;19.03;;;;;;;-144.73;92.99;54362.53;5006857;28;20056;-68
2023/03/02 08:56:15;;;;;;;38.47;18.27;;;;;;;-144.73;93.41;54391.28;5020505;28;20038;-68
2023/03/02 08:58:40;;;;;;;38.40;17.80;;;;;;;-144.73;92.92;54378.97;5019001;28;20026;-68
2023/03/02 09:01:12;;;;;;;39.83;17.60;;;;;;;-144.73;92.88;54407.69;4994951;28;20025;-68
2023/03/02 09:03:37;;;;;;;37.10;17.07;;;;;;;-144.73;92.99;54395.38;5021192;28;20033;-68
2023/03/02 09:06:03;;;;;;;50.07;19.50;;;;;;;-144.73;93.46;54391.28;5018090;28;20030;-68
2023/03/02 09:08:29;;;;;;;44.60;18.43;;;;;;;-144.73;93.53;54428.22;4997668;28;20103;-68
2023/03/02 09:10:54;;;;;;;50.33;16.90;;;;;;;-144.73;93.06;54407.69;5022439;28;20045;-68
2023/03/02 09:13:19;;;;;;;85.53;18.97;;;;;;;-144.73;92.66;54395.38;5014388;28;20041;-68
2023/03/02 09:15:44;;;;;;;36.47;16.53;;;;;;;-144.73;92.14;54395.38;5013353;28;20068;-68
2023/03/02 09:18:10;;;;;;;35.83;17.07;;;;;;;-144.73;92.26;54378.97;5025938;28;20037;-68
2023/03/02 09:20:35;;;;;;;33.80;16.80;;;;;;;-144.73;92.28;54370.75;5014948;28;20034;-69
2023/03/02 09:23:01;;;;;;;35.55;16.15;;;;;;;-144.73;92.15;54399.50;5009786;28;20041;-67
2023/03/02 09:25:26;;;;;;;43.28;16.50;;;;;;;-144.73;91.73;54391.28;5006579;28;20028;-67
2023/03/02 09:27:51;;;;;;;35.57;18.50;;;;;;;-144.73;92.63;54420.00;5021025;28;20393;-68
2023/03/02 09:30:17;;;;;;;31.08;16.88;;;;;;;-144.73;92.10;54407.69;5004578;28;20041;-67
2023/03/02 09:32:42;;;;;;;33.35;14.60;;;;;;;-144.73;92.04;54391.28;5000866;28;20033;-67
2023/03/02 09:35:08;;;;;;;36.47;16.70;;;;;;;-144.73;92.21;54428.22;5012568;28;20116;-67
2023/03/02 09:37:36;;;;;;;36.00;17.23;;;;;;;-144.73;91.36;54436.44;4998537;28;20033;-67
2023/03/02 09:40:01;;;;;;;39.15;17.88;;;;;;;-144.73;91.06;54407.69;4998344;28;20022;-67
2023/03/02 09:42:46;;;;;;;33.38;15.75;;;;;;;-144.73;91.07;54395.38;5001207;28;20045;-68
2023/03/02 09:45:24;;;;;;;38.80;18.10;;;;;;;-144.73;90.75;54387.19;5034468;28;20037;-67
2023/03/02 09:48:04;;;;;;;34.70;17.07;;;;;;;-144.73;91.40;54383.06;5015544;28;20421;-68
2023/03/02 09:50:41;;;;;;;30.17;16.43;;;;;;;-144.73;91.85;54420.00;4997470;28;20152;-68
2023/03/02 09:53:32;;;;;;;36.40;17.50;;;;;;;-144.73;91.67;54383.06;5006404;28;20029;-68
2023/03/02 09:55:59;;;;;;;30.10;14.77;;;;;;;-144.73;91.05;54385.13;4994384;28;20045;-68
2023/03/02 09:58:30;;;;;;;29.85;15.90;;;;;;;-144.73;90.97;54424.13;4998365;28;20029;-68
2023/03/02 10:00:59;;;;;;;36.15;17.65;;;;;;;-144.73;90.47;54407.69;5017918;28;20029;-68
2023/03/02 10:03:38;;;;;;;26.77;15.65;;;;;;;-144.73;90.33;54448.75;5015631;28;21013;-68
2023/03/02 10:06:04;;;;;;;27.63;14.55;;;;;;;-144.73;90.33;54434.38;5018358;28;20029;-68
2023/03/02 10:08:33;;;;;;;27.77;14.27;;;;;;;-144.73;89.68;54432.31;5005369;28;20032;-67
2023/03/02 10:11:21;;;;;;;31.77;16.30;;;;;;;-144.73;89.23;54415.91;5016927;28;20087;-68
2023/03/02 10:13:55;;;;;;;28.88;15.48;;;;;;;-144.73;89.22;54407.69;5000152;28;20029;-67
2023/03/02 10:16:43;;;;;;;27.63;15.15;;;;;;;-144.73;87.69;54391.28;5020089;28;20125;-67
2023/03/02 10:19:15;;;;;;;32.88;16.08;;;;;;;-144.73;87.56;54391.28;5000962;28;20026;-68
2023/03/02 10:22:07;;;;;;;40.72;18.75;;;;;;;-144.73;88.79;54370.75;5006531;28;20037;-68
2023/03/02 10:24:39;;;;;;;34.03;17.67;;;;;;;-144.73;90.65;54428.22;5006199;28;20112;-68
2023/03/02 10:27:21;;;;;;;39.75;18.95;;;;;;;-144.73;90.02;54387.19;5011740;28;20051;-68
2023/03/02 10:29:57;;;;;;;38.33;17.80;;;;;;;-144.73;90.04;54424.13;5004944;28;20029;-68
2023/03/02 10:32:26;;;;;;;34.50;16.63;;;;;;;-144.73;90.24;54389.22;5013376;28;20076;-68
2023/03/02 10:34:52;;;;;;;34.92;17.92;;;;;;;-144.73;89.64;54391.28;5010606;28;20101;-69
2023/03/02 10:37:28;;;;;;;32.35;16.65;;;;;;;-144.73;89.46;54424.13;5003022;28;20062;-68
2023/03/02 10:39:54;;;;;;;30.52;17.63;;;;;;;-144.73;89.72;54413.84;5022025;28;20032;-68
2023/03/02 10:42:28;;;;;;;37.85;17.45;;;;;;;-144.73;89.33;54397.44;5013853;28;20042;-68
2023/03/02 10:45:21;;;;;;;35.42;17.15;;;;;;;-144.73;89.69;54411.81;5021746;28;20026;-68
2023/03/02 10:47:46;;;;;;;28.83;15.57;;;;;;;-144.73;89.13;54411.81;5011077;28;20171;-68
2023/03/02 10:50:22;;;;;;;30.88;16.27;;;;;;;-144.73;89.67;54432.31;5011386;28;20124;-67
2023/03/02 10:52:49;;;;;;;38.17;17.98;;;;;;;-144.73;89.99;54432.31;5019011;28;20121;-67
2023/03/02 10:55:14;;;;;;;34.28;16.48;;;;;;;-144.73;90.69;54432.31;5012115;28;20074;-67
2023/03/02 10:57:45;;;;;;;35.03;16.17;;;;;;;-144.73;89.99;54378.97;5014682;28;20132;-68
2023/03/02 11:00:26;;;;;;;31.65;15.50;;;;;;;-144.73;90.06;54436.44;5015054;28;20030;-67
2023/03/02 11:02:53;;;;;;;40.95;17.23;;;;;;;-144.73;89.99;54333.81;4997204;28;20053;-67
2023/03/02 11:05:30;;;;;;;35.72;16.80;;;;;;;-144.73;90.16;54383.06;5012201;28;20116;-68